Time;durP1;ratioP1;P1;durP2;ratioP2;P2;SDS_P1;SDS_P2;PMS_P1;PMS_P2;Temp;Humidity;BMP_temperature;BMP_pressure;BME280_temperature;BME280_humidity;BME280_pressure;Samples;Min_cycle;Max_cycle;Signal;HPM_P1;HPM_P2
2022/06/16 00:02:48;;;;;;;4.57;2.15;;;;;;;;;;6057742;23;20030;-88
2022/06/16 00:12:20;;;;;;;5.03;1.90;;;;;;;;;;6000376;23;20098;-88
2022/06/16 00:21:49;;;;;;;4.20;2.00;;;;;;;;;;6038866;23;20436;-87
2022/06/16 00:26:16;;;;;;;4.13;1.85;;;;;;;;;;6028758;23;20027;-87
2022/06/16 00:35:20;;;;;;;6.13;2.03;;;;;;;;;;6000106;23;20072;-87
2022/06/16 00:59:06;;;;;;;5.10;1.60;;;;;;;;;;5956222;24;20031;-94
2022/06/16 04:06:36;;;;;;;3.55;2.10;;;;;;;;;;6216043;23;20028;-84
2022/06/16 04:09:28;;;;;;;;;;;;;;;;;;6197063;23;20017;-84
2022/06/16 04:12:55;;;;;;;4.75;2.03;;;;;;;;;;6196072;23;19923;-88
2022/06/16 05:04:01;;;;;;;3.90;2.20;;;;;;;;;;6208595;23;20012;-80
2022/06/16 05:06:54;;;;;;;5.70;1.90;;;;;;;;;;6232195;23;20016;-79
2022/06/16 05:09:35;;;;;;;6.28;2.00;;;;;;;;;;6173665;23;20035;-82
2022/06/16 05:12:23;;;;;;;5.68;2.10;;;;;;;;;;6210122;23;20013;-82
2022/06/16 05:15:06;;;;;;;8.20;2.00;;;;;;;;;;6222185;23;20048;-81
2022/06/16 05:17:53;;;;;;;5.22;2.90;;;;;;;;;;6232940;23;20044;-82
2022/06/16 05:21:07;;;;;;;6.07;2.03;;;;;;;;;;6207394;23;20020;-82
2022/06/16 05:23:43;;;;;;;4.35;1.90;;;;;;;;;;6181427;23;20025;-83
2022/06/16 05:26:33;;;;;;;8.18;2.40;;;;;;;;;;6224786;23;20027;-82
2022/06/16 05:29:31;;;;;;;5.35;2.25;;;;;;;;;;6179897;23;20108;-82
2022/06/16 05:32:18;;;;;;;6.00;2.00;;;;;;;;;;6185709;23;20021;-82
2022/06/16 05:35:00;;;;;;;7.38;2.20;;;;;;;;;;6220020;23;20108;-81
2022/06/16 05:37:45;;;;;;;7.07;2.00;;;;;;;;;;6218537;23;20020;-83
2022/06/16 05:41:02;;;;;;;5.65;2.53;;;;;;;;;;6069961;23;20046;-84
2022/06/16 05:43:57;;;;;;;5.97;2.42;;;;;;;;;;6067918;23;20067;-84
2022/06/16 05:46:43;;;;;;;6.47;1.95;;;;;;;;;;6068057;23;20031;-84
2022/06/16 05:49:24;;;;;;;7.38;2.13;;;;;;;;;;6044784;23;20364;-84
2022/06/16 05:51:55;;;;;;;3.80;2.20;;;;;;;;;;6044219;23;20033;-84
2022/06/16 05:54:29;;;;;;;5.85;2.63;;;;;;;;;;6034646;23;20058;-84
2022/06/16 05:56:57;;;;;;;3.85;2.10;;;;;;;;;;6033264;23;20030;-83
2022/06/16 05:59:25;;;;;;;9.65;2.47;;;;;;;;;;6068516;23;20487;-83
2022/06/16 06:01:53;;;;;;;8.43;2.72;;;;;;;;;;6039524;23;20034;-83
2022/06/16 06:04:27;;;;;;;5.50;2.47;;;;;;;;;;6070782;23;20031;-83
2022/06/16 06:06:57;;;;;;;6.22;2.40;;;;;;;;;;6075670;23;20043;-83
2022/06/16 06:18:46;;;;;;;8.82;2.40;;;;;;;;;;6225070;23;20527;-83
2022/06/16 06:21:58;;;;;;;5.05;2.58;;;;;;;;;;6175574;23;20103;-83
2022/06/16 06:24:40;;;;;;;6.70;2.60;;;;;;;;;;6226599;23;20020;-83
2022/06/16 06:27:28;;;;;;;7.65;2.78;;;;;;;;;;6224621;23;20543;-83
2022/06/16 06:30:22;;;;;;;8.00;2.20;;;;;;;;;;6176407;23;20936;-83
2022/06/16 06:32:52;;;;;;;5.88;2.20;;;;;;;;;;6191650;23;20048;-83
2022/06/16 06:35:19;;;;;;;6.20;2.50;;;;;;;;;;6224823;23;20024;-83
2022/06/16 06:37:53;;;;;;;6.68;2.13;;;;;;;;;;6194137;23;20019;-83
2022/06/16 06:40:29;;;;;;;4.25;1.92;;;;;;;;;;6198519;23;20016;-83
2022/06/16 06:43:02;;;;;;;6.35;2.20;;;;;;;;;;6224372;23;20027;-83
2022/06/16 06:45:31;;;;;;;7.97;2.03;;;;;;;;;;6194438;23;20031;-83
2022/06/16 06:48:04;;;;;;;3.85;1.50;;;;;;;;;;6194881;23;20040;-83
2022/06/16 06:50:40;;;;;;;4.03;1.55;;;;;;;;;;6199276;23;20016;-82
2022/06/16 06:53:09;;;;;;;3.75;1.52;;;;;;;;;;6223038;23;20023;-83
2022/06/16 06:55:45;;;;;;;5.60;1.88;;;;;;;;;;6223622;23;20103;-83
2022/06/16 06:58:18;;;;;;;6.13;2.08;;;;;;;;;;6224845;23;20052;-82
2022/06/16 07:00:45;;;;;;;5.40;1.70;;;;;;;;;;6199328;23;20602;-83
2022/06/16 07:03:20;;;;;;;6.43;1.65;;;;;;;;;;6224792;23;20096;-82
2022/06/16 07:05:49;;;;;;;9.75;2.33;;;;;;;;;;6225210;23;20024;-82
2022/06/16 07:08:41;;;;;;;3.63;1.58;;;;;;;;;;6224567;23;20016;-82
2022/06/16 07:11:33;;;;;;;4.35;1.40;;;;;;;;;;6202544;23;20731;-83
2022/06/16 07:14:01;;;;;;;5.07;1.80;;;;;;;;;;6223300;23;20032;-83
2022/06/16 07:16:34;;;;;;;3.03;1.58;;;;;;;;;;6194454;23;20024;-83
2022/06/16 07:19:02;;;;;;;5.68;1.50;;;;;;;;;;6222155;23;20017;-83
2022/06/16 07:21:29;;;;;;;5.32;1.13;;;;;;;;;;6171909;23;20310;-83
2022/06/16 07:23:57;;;;;;;2.53;1.30;;;;;;;;;;6223059;23;20016;-83
2022/06/16 07:26:49;;;;;;;4.10;1.60;;;;;;;;;;6224542;23;20160;-83
2022/06/16 07:29:21;;;;;;;3.67;1.15;;;;;;;;;;6226195;23;20027;-83
2022/06/16 07:31:53;;;;;;;4.20;1.45;;;;;;;;;;6224081;23;20087;-83
2022/06/16 07:34:21;;;;;;;2.50;1.27;;;;;;;;;;6225720;23;20319;-83
2022/06/16 07:36:54;;;;;;;3.55;1.10;;;;;;;;;;6201359;23;20028;-83
2022/06/16 07:39:27;;;;;;;4.18;1.20;;;;;;;;;;6225665;23;20048;-83
2022/06/16 07:41:59;;;;;;;4.05;1.13;;;;;;;;;;6199885;23;20016;-83
2022/06/16 07:44:31;;;;;;;3.42;1.20;;;;;;;;;;6177420;23;20375;-83
2022/06/16 07:46:59;;;;;;;3.65;1.10;;;;;;;;;;6224340;23;20051;-83
2022/06/16 07:49:29;;;;;;;2.97;1.00;;;;;;;;;;6190505;23;20075;-83
2022/06/16 07:51:57;;;;;;;4.43;1.02;;;;;;;;;;6226523;23;20012;-83
2022/06/16 07:54:27;;;;;;;3.05;0.95;;;;;;;;;;6200443;23;20047;-83
2022/06/16 07:57:17;;;;;;;1.90;0.80;;;;;;;;;;6225661;23;20471;-83
2022/06/16 07:59:55;;;;;;;3.00;1.20;;;;;;;;;;6226135;23;20068;-83
2022/06/16 08:02:24;;;;;;;3.95;1.58;;;;;;;;;;6198303;23;20025;-83
2022/06/16 08:04:51;;;;;;;4.40;1.50;;;;;;;;;;6189580;23;20412;-83
2022/06/16 08:07:19;;;;;;;3.85;1.05;;;;;;;;;;6199768;23;20039;-83
2022/06/16 08:10:17;;;;;;;5.70;1.05;;;;;;;;;;6226160;23;20428;-83
2022/06/16 08:12:49;;;;;;;3.95;1.20;;;;;;;;;;6200434;23;20452;-83
2022/06/16 08:15:17;;;;;;;4.28;1.00;;;;;;;;;;6201207;23;20028;-83
2022/06/16 08:17:49;;;;;;;3.47;1.13;;;;;;;;;;6199884;23;20020;-83
2022/06/16 08:20:17;;;;;;;2.83;0.90;;;;;;;;;;6226825;23;20020;-83
2022/06/16 08:22:45;;;;;;;2.47;0.90;;;;;;;;;;6225849;23;20079;-83
2022/06/16 08:25:15;;;;;;;1.90;0.80;;;;;;;;;;6227402;23;20020;-85
2022/06/16 08:27:47;;;;;;;2.90;0.95;;;;;;;;;;6196940;23;20029;-84
2022/06/16 08:30:17;;;;;;;2.03;0.80;;;;;;;;;;6223688;23;20023;-83
2022/06/16 08:32:55;;;;;;;8.20;1.08;;;;;;;;;;6220501;23;20013;-85
2022/06/16 08:35:49;;;;;;;1.92;0.90;;;;;;;;;;6220598;23;20024;-85
2022/06/16 08:38:17;;;;;;;2.03;0.90;;;;;;;;;;6193580;23;20020;-84
2022/06/16 08:40:47;;;;;;;2.47;0.90;;;;;;;;;;6171366;23;20404;-85
2022/06/16 08:43:53;;;;;;;3.17;1.00;;;;;;;;;;6165110;23;20028;-85
2022/06/16 08:46:23;;;;;;;4.10;1.00;;;;;;;;;;6220019;23;20024;-85
2022/06/16 08:49:30;;;;;;;4.22;0.80;;;;;;;;;;6221848;23;20071;-84
2022/06/16 08:52:22;;;;;;;4.00;0.80;;;;;;;;;;6191522;23;20067;-85
2022/06/16 08:55:09;;;;;;;4.13;1.00;;;;;;;;;;6210639;23;20115;-84
2022/06/16 08:57:37;;;;;;;2.03;0.63;;;;;;;;;;6194328;23;20047;-85
2022/06/16 09:00:11;;;;;;;2.25;0.60;;;;;;;;;;6195084;23;20024;-85
2022/06/16 09:03:20;;;;;;;2.10;0.73;;;;;;;;;;6183565;23;20032;-85
2022/06/16 09:05:57;;;;;;;6.13;0.85;;;;;;;;;;6194595;23;20727;-85
2022/06/16 09:08:46;;;;;;;4.00;0.88;;;;;;;;;;6187317;23;20043;-85
2022/06/16 09:11:32;;;;;;;2.58;1.00;;;;;;;;;;6220014;23;20024;-85
2022/06/16 09:17:46;;;;;;;1.30;0.52;;;;;;;;;;6157951;23;20035;-85
2022/06/16 09:21:07;;;;;;;3.15;0.80;;;;;;;;;;6219913;23;20024;-85
2022/06/16 09:24:03;;;;;;;1.90;0.70;;;;;;;;;;6159108;23;20028;-85
2022/06/16 09:26:38;;;;;;;4.57;0.65;;;;;;;;;;6192678;23;20031;-85
2022/06/16 09:29:21;;;;;;;4.05;0.80;;;;;;;;;;6221095;23;20046;-85
2022/06/16 09:31:59;;;;;;;2.70;0.70;;;;;;;;;;6193831;23;20020;-85
2022/06/16 09:34:38;;;;;;;1.60;0.57;;;;;;;;;;6220067;23;20047;-85
2022/06/16 09:37:37;;;;;;;1.75;0.65;;;;;;;;;;6219508;23;20042;-85
2022/06/16 09:40:26;;;;;;;3.80;0.73;;;;;;;;;;6205235;23;20028;-85
2022/06/16 09:43:44;;;;;;;5.75;0.77;;;;;;;;;;6220010;23;20463;-85
2022/06/16 09:46:40;;;;;;;4.38;0.70;;;;;;;;;;6157561;23;20356;-85
2022/06/16 09:49:17;;;;;;;3.75;0.73;;;;;;;;;;6158805;23;20024;-85
2022/06/16 09:52:14;;;;;;;2.08;0.80;;;;;;;;;;6218210;23;20196;-86
2022/06/16 09:55:15;;;;;;;2.35;0.73;;;;;;;;;;6173158;23;20008;-85
2022/06/16 09:57:52;;;;;;;3.13;0.80;;;;;;;;;;6158296;23;20041;-85
2022/06/16 10:00:23;;;;;;;2.95;1.00;;;;;;;;;;6183967;23;20087;-85
2022/06/16 10:02:58;;;;;;;4.18;0.88;;;;;;;;;;6193468;23;20067;-85
2022/06/16 10:05:41;;;;;;;5.27;1.00;;;;;;;;;;6193564;23;20060;-86
2022/06/16 10:08:24;;;;;;;2.60;1.05;;;;;;;;;;6158456;23;20029;-86
2022/06/16 10:11:00;;;;;;;2.30;0.95;;;;;;;;;;6183000;23;20075;-85
2022/06/16 10:13:46;;;;;;;3.95;0.93;;;;;;;;;;6160793;23;20031;-85
2022/06/16 10:16:16;;;;;;;3.45;0.93;;;;;;;;;;6218626;23;20029;-85
2022/06/16 10:18:46;;;;;;;2.58;0.73;;;;;;;;;;6192013;23;20024;-86
2022/06/16 10:21:16;;;;;;;2.75;0.68;;;;;;;;;;6193001;23;20024;-85
2022/06/16 10:23:54;;;;;;;5.17;1.57;;;;;;;;;;6193365;23;20017;-86
2022/06/16 10:26:21;;;;;;;1.67;0.70;;;;;;;;;;6192972;23;20024;-86
2022/06/16 10:29:00;;;;;;;2.50;0.80;;;;;;;;;;6217592;23;20479;-86
2022/06/16 10:31:48;;;;;;;2.17;0.80;;;;;;;;;;6156997;23;20029;-85
2022/06/16 10:34:29;;;;;;;2.83;0.80;;;;;;;;;;6158236;23;20047;-85
2022/06/16 10:45:25;;;;;;;3.95;0.90;;;;;;;;;;6152486;23;20036;-85
2022/06/16 10:48:28;;;;;;;3.78;1.05;;;;;;;;;;6176639;23;20040;-85
2022/06/16 10:51:12;;;;;;;5.07;1.08;;;;;;;;;;6163431;23;20393;-85
2022/06/16 10:54:01;;;;;;;3.85;0.77;;;;;;;;;;6188168;23;20027;-85
2022/06/16 10:56:30;;;;;;;3.08;0.80;;;;;;;;;;6107774;23;20061;-84
2022/06/16 10:59:26;;;;;;;2.30;0.80;;;;;;;;;;6159473;23;20512;-84
2022/06/16 11:02:09;;;;;;;3.45;0.85;;;;;;;;;;6141525;23;20029;-85
2022/06/16 11:04:39;;;;;;;5.20;1.00;;;;;;;;;;6159279;23;20032;-84
2022/06/16 11:07:40;;;;;;;2.38;0.80;;;;;;;;;;6175191;23;20029;-84
2022/06/16 11:10:33;;;;;;;4.95;1.30;;;;;;;;;;6169671;23;20812;-84
2022/06/16 11:13:33;;;;;;;2.03;0.90;;;;;;;;;;6227232;23;20015;-84
2022/06/16 11:16:08;;;;;;;4.22;0.90;;;;;;;;;;6166048;23;20782;-85
2022/06/16 11:18:44;;;;;;;1.98;0.80;;;;;;;;;;6175857;23;20079;-84
2022/06/16 11:21:24;;;;;;;2.17;0.90;;;;;;;;;;6225890;23;20016;-84
2022/06/16 11:23:54;;;;;;;1.83;0.70;;;;;;;;;;6201185;23;20023;-84
2022/06/16 11:26:27;;;;;;;2.58;0.93;;;;;;;;;;6200087;23;20024;-84
2022/06/16 11:29:21;;;;;;;3.13;0.80;;;;;;;;;;6189974;23;20021;-84
2022/06/16 11:32:04;;;;;;;4.30;0.82;;;;;;;;;;6224437;23;20075;-84
2022/06/16 11:34:33;;;;;;;3.55;0.77;;;;;;;;;;6199452;23;20051;-86
2022/06/16 11:37:54;;;;;;;3.15;0.75;;;;;;;;;;6132923;23;20036;-83
2022/06/16 11:41:12;;;;;;;1.80;0.73;;;;;;;;;;6154521;23;20751;-84
2022/06/16 11:44:09;;;;;;;4.03;0.90;;;;;;;;;;6154471;23;20033;-84
2022/06/16 11:46:44;;;;;;;3.60;1.02;;;;;;;;;;6152141;23;20033;-85
2022/06/16 11:49:20;;;;;;;3.17;0.80;;;;;;;;;;6130199;23;20025;-85
2022/06/16 11:52:36;;;;;;;6.90;0.90;;;;;;;;;;6153353;23;20220;-84
2022/06/16 11:55:29;;;;;;;3.25;1.10;;;;;;;;;;6153804;23;20025;-84
2022/06/16 11:58:12;;;;;;;4.03;0.85;;;;;;;;;;6155081;23;20052;-84
2022/06/16 12:00:54;;;;;;;4.32;0.98;;;;;;;;;;6154716;23;20112;-84
2022/06/16 12:04:06;;;;;;;1.85;0.70;;;;;;;;;;6130499;23;20025;-84
2022/06/16 12:06:49;;;;;;;1.17;0.55;;;;;;;;;;6155622;23;20026;-84
2022/06/16 12:09:29;;;;;;;3.22;0.88;;;;;;;;;;6174752;23;20028;-84
2022/06/16 12:12:11;;;;;;;5.38;1.63;;;;;;;;;;6218834;23;20017;-84
2022/06/16 12:14:45;;;;;;;4.63;0.95;;;;;;;;;;6194506;23;20063;-84
2022/06/16 12:18:22;;;;;;;4.60;1.10;;;;;;;;;;6219618;23;20023;-84
2022/06/16 12:21:10;;;;;;;4.72;1.08;;;;;;;;;;6221291;23;20024;-84
2022/06/16 12:24:06;;;;;;;2.28;0.80;;;;;;;;;;6193012;23;20504;-84
2022/06/16 12:26:33;;;;;;;3.90;1.20;;;;;;;;;;6154894;23;20039;-84
2022/06/16 12:29:17;;;;;;;2.95;0.90;;;;;;;;;;6220721;23;20523;-84
2022/06/16 12:32:15;;;;;;;4.07;1.95;;;;;;;;;;6220364;23;20024;-85
2022/06/16 12:35:11;;;;;;;5.82;2.55;;;;;;;;;;6184467;23;20027;-84
2022/06/16 12:37:46;;;;;;;2.78;0.82;;;;;;;;;;6194541;23;20024;-84
2022/06/16 12:40:25;;;;;;;4.28;1.00;;;;;;;;;;6195996;23;20020;-84
2022/06/16 12:43:18;;;;;;;4.35;1.00;;;;;;;;;;6221163;23;20012;-84
2022/06/16 12:45:53;;;;;;;2.22;1.00;;;;;;;;;;6221179;23;20020;-84
2022/06/16 12:48:56;;;;;;;4.50;0.90;;;;;;;;;;6195502;23;20718;-84
2022/06/16 12:51:35;;;;;;;3.15;0.90;;;;;;;;;;6199259;23;20039;-84
2022/06/16 12:54:10;;;;;;;1.67;0.80;;;;;;;;;;6220548;23;20019;-84
2022/06/16 12:57:05;;;;;;;2.13;0.60;;;;;;;;;;6220375;23;20025;-84
2022/06/16 12:59:54;;;;;;;3.50;1.05;;;;;;;;;;6150547;23;20283;-83
2022/06/16 13:02:29;;;;;;;2.42;1.00;;;;;;;;;;6215641;23;20055;-83
2022/06/16 13:05:00;;;;;;;3.83;1.30;;;;;;;;;;6217494;23;20024;-83
2022/06/16 13:07:33;;;;;;;3.70;1.02;;;;;;;;;;6216735;23;20016;-83
2022/06/16 13:10:04;;;;;;;1.73;0.80;;;;;;;;;;6189816;23;20352;-83
2022/06/16 13:12:43;;;;;;;5.03;1.00;;;;;;;;;;6218400;23;20718;-83
2022/06/16 13:15:34;;;;;;;2.65;0.75;;;;;;;;;;6155170;23;20463;-83
2022/06/16 13:18:13;;;;;;;4.13;1.17;;;;;;;;;;6178673;23;20401;-83
2022/06/16 13:21:07;;;;;;;3.03;1.05;;;;;;;;;;6156677;23;20090;-84
2022/06/16 13:23:37;;;;;;;2.05;0.88;;;;;;;;;;6216384;23;20020;-84
2022/06/16 13:26:38;;;;;;;2.28;0.95;;;;;;;;;;6136405;23;20024;-84
2022/06/16 13:29:05;;;;;;;2.30;0.98;;;;;;;;;;6191311;23;20056;-83
2022/06/16 13:31:43;;;;;;;5.15;0.90;;;;;;;;;;6191266;23;20025;-85
2022/06/16 13:34:18;;;;;;;4.00;0.83;;;;;;;;;;6225268;23;20330;-85
2022/06/16 13:36:54;;;;;;;3.05;0.77;;;;;;;;;;6226046;23;20091;-84
2022/06/16 13:40:05;;;;;;;3.22;0.82;;;;;;;;;;6201487;23;20027;-84
2022/06/16 13:43:00;;;;;;;2.95;0.85;;;;;;;;;;6132921;23;20026;-83
2022/06/16 13:46:46;;;;;;;3.38;0.80;;;;;;;;;;6096294;23;20038;-83
2022/06/16 13:49:53;;;;;;;5.22;1.10;;;;;;;;;;6071951;23;20572;-84
2022/06/16 13:52:28;;;;;;;4.15;1.17;;;;;;;;;;6094674;23;20026;-85
2022/06/16 13:55:22;;;;;;;3.87;0.93;;;;;;;;;;6071164;23;20033;-84
2022/06/16 13:58:12;;;;;;;3.42;0.82;;;;;;;;;;6047543;23;20030;-85
2022/06/16 14:01:15;;;;;;;2.88;0.77;;;;;;;;;;6037606;23;20109;-85
2022/06/16 14:03:59;;;;;;;4.65;1.55;;;;;;;;;;6072535;23;20022;-84
2022/06/16 14:07:10;;;;;;;2.13;0.80;;;;;;;;;;6061444;23;21140;-85
2022/06/16 14:09:53;;;;;;;2.67;0.98;;;;;;;;;;6097228;23;20398;-84
2022/06/16 14:13:08;;;;;;;4.00;1.08;;;;;;;;;;6084473;23;20492;-85
2022/06/16 14:16:02;;;;;;;2.95;0.85;;;;;;;;;;6068980;23;20669;-85
2022/06/16 14:20:12;;;;;;;3.58;0.80;;;;;;;;;;6034354;23;20031;-88
2022/06/16 14:23:24;;;;;;;2.35;0.77;;;;;;;;;;6012856;23;20103;-87
2022/06/16 14:26:14;;;;;;;1.88;0.75;;;;;;;;;;6026119;23;20027;-87
2022/06/16 14:29:38;;;;;;;2.30;0.80;;;;;;;;;;6000324;23;20106;-86
2022/06/16 14:32:57;;;;;;;1.75;0.63;;;;;;;;;;6000517;23;20059;-86
2022/06/16 14:36:28;;;;;;;1.88;0.65;;;;;;;;;;6007190;23;20472;-87
2022/06/16 14:39:37;;;;;;;3.05;0.93;;;;;;;;;;6005118;23;20043;-84
2022/06/16 14:42:16;;;;;;;4.55;1.05;;;;;;;;;;6044367;23;20027;-84
2022/06/16 14:44:53;;;;;;;5.55;1.10;;;;;;;;;;6067346;23;20236;-84
2022/06/16 14:47:37;;;;;;;1.20;0.63;;;;;;;;;;6066037;23;20030;-84
2022/06/16 14:50:22;;;;;;;1.73;0.75;;;;;;;;;;6144378;23;20353;-85
2022/06/16 14:53:05;;;;;;;1.45;0.80;;;;;;;;;;6152176;23;20049;-85
2022/06/16 14:59:18;;;;;;;5.57;1.13;;;;;;;;;;6191094;23;20034;-85
2022/06/16 15:01:49;;;;;;;1.73;0.70;;;;;;;;;;6191781;23;20852;-85
2022/06/16 15:04:22;;;;;;;2.88;0.90;;;;;;;;;;6183748;23;20092;-85
2022/06/16 15:06:58;;;;;;;5.03;1.00;;;;;;;;;;6217826;23;20027;-85
2022/06/16 15:09:30;;;;;;;6.70;1.10;;;;;;;;;;6218753;23;20240;-84
2022/06/16 15:12:04;;;;;;;2.50;0.93;;;;;;;;;;6219568;23;20024;-82
2022/06/16 15:14:35;;;;;;;3.80;1.00;;;;;;;;;;6220121;23;20013;-84
2022/06/16 15:19:57;;;;;;;6.75;1.30;;;;;;;;;;6218779;23;20071;-83
2022/06/16 15:22:28;;;;;;;3.22;1.20;;;;;;;;;;6217873;23;20044;-82
2022/06/16 15:25:04;;;;;;;2.47;0.95;;;;;;;;;;6217546;23;20019;-82
2022/06/16 15:27:43;;;;;;;2.92;1.15;;;;;;;;;;6221778;23;20090;-81
2022/06/16 15:36:21;;;;;;;5.85;1.40;;;;;;;;;;6191231;23;20047;-82
2022/06/16 15:38:52;;;;;;;4.72;1.17;;;;;;;;;;6218158;23;20016;-83
2022/06/16 15:41:40;;;;;;;4.57;1.33;;;;;;;;;;6217576;23;20468;-83
2022/06/16 15:44:40;;;;;;;4.20;1.20;;;;;;;;;;6218338;23;20122;-83
2022/06/16 15:47:36;;;;;;;4.43;1.50;;;;;;;;;;6218628;23;20020;-83
2022/06/16 15:50:18;;;;;;;3.97;1.30;;;;;;;;;;6219963;23;20024;-83
2022/06/16 15:52:55;;;;;;;4.00;1.38;;;;;;;;;;6219156;23;20364;-83
2022/06/16 15:55:32;;;;;;;4.43;1.52;;;;;;;;;;6208261;23;20039;-84
2022/06/16 15:58:06;;;;;;;2.97;1.20;;;;;;;;;;6192860;23;20020;-84
2022/06/16 16:00:59;;;;;;;3.92;1.52;;;;;;;;;;6219370;23;20028;-83
2022/06/16 16:03:30;;;;;;;3.45;1.35;;;;;;;;;;6220576;23;20511;-83
2022/06/16 16:05:57;;;;;;;5.57;1.23;;;;;;;;;;6192444;23;20017;-83
2022/06/16 16:08:28;;;;;;;5.22;1.52;;;;;;;;;;6183062;23;20345;-83
2022/06/16 16:10:58;;;;;;;4.70;1.50;;;;;;;;;;6183376;23;20122;-83
2022/06/16 16:13:27;;;;;;;7.15;1.52;;;;;;;;;;6219685;23;20235;-82
2022/06/16 16:16:03;;;;;;;6.30;1.55;;;;;;;;;;6217924;23;20044;-83
2022/06/16 16:19:13;;;;;;;4.72;1.65;;;;;;;;;;6196506;23;20029;-83
2022/06/16 16:21:46;;;;;;;5.85;2.00;;;;;;;;;;6185378;23;20054;-84
2022/06/16 16:24:48;;;;;;;5.93;1.50;;;;;;;;;;6219789;23;20025;-83
2022/06/16 16:27:25;;;;;;;8.27;1.20;;;;;;;;;;6180935;23;20024;-85
2022/06/16 16:30:00;;;;;;;6.10;1.65;;;;;;;;;;6193736;23;20392;-84
2022/06/16 16:32:34;;;;;;;4.07;1.48;;;;;;;;;;6219488;23;20020;-85
2022/06/16 16:35:27;;;;;;;3.28;1.30;;;;;;;;;;6217678;23;20016;-86
2022/06/16 16:38:50;;;;;;;3.20;1.60;;;;;;;;;;6220067;23;20028;-85
2022/06/16 16:45:38;;;;;;;4.55;1.23;;;;;;;;;;6183018;23;20429;-85
2022/06/16 16:48:14;;;;;;;3.25;1.30;;;;;;;;;;6182089;23;20123;-85
2022/06/16 16:50:49;;;;;;;5.15;1.60;;;;;;;;;;6193473;23;20871;-87
2022/06/16 16:53:40;;;;;;;8.45;1.33;;;;;;;;;;6192387;23;20048;-85
2022/06/16 16:56:27;;;;;;;4.35;1.15;;;;;;;;;;6218501;23;20911;-85
2022/06/16 16:59:01;;;;;;;6.78;1.40;;;;;;;;;;6226426;23;20020;-87
2022/06/16 17:01:38;;;;;;;2.92;1.20;;;;;;;;;;6218102;23;20496;-87
2022/06/16 17:04:29;;;;;;;5.50;1.50;;;;;;;;;;6197846;23;20120;-87
2022/06/16 17:07:12;;;;;;;4.25;1.40;;;;;;;;;;6184157;23;20425;-84
2022/06/16 17:10:13;;;;;;;7.15;1.48;;;;;;;;;;6163765;23;20073;-86
2022/06/16 17:13:09;;;;;;;3.25;1.30;;;;;;;;;;6181950;23;20049;-85
2022/06/16 17:15:55;;;;;;;4.50;1.40;;;;;;;;;;6217712;23;20099;-85
2022/06/16 17:18:37;;;;;;;4.90;1.23;;;;;;;;;;6187154;23;20024;-86
2022/06/16 17:21:20;;;;;;;3.47;1.20;;;;;;;;;;6184439;23;20024;-86
2022/06/16 17:24:24;;;;;;;4.85;1.50;;;;;;;;;;6193003;23;20031;-86
2022/06/16 17:27:52;;;;;;;3.65;1.23;;;;;;;;;;6146160;23;20028;-86
2022/06/16 17:40:28;;;;;;;2.65;1.20;;;;;;;;;;6187094;23;20100;-88
2022/06/16 18:25:43;;;;;;;4.53;2.40;;;;;;;;;;6126236;23;20029;-88
2022/06/16 18:30:15;;;;;;;3.72;1.58;;;;;;;;;;5977570;24;20038;-88
2022/06/16 18:39:41;;;;;;;3.90;1.45;;;;;;;;;;5960473;23;20052;-87
2022/06/16 20:01:28;;;;;;;7.70;2.50;;;;;;;;;;6222357;23;20025;-91
2022/06/16 20:03:55;;;;;;;5.35;2.28;;;;;;;;;;6220642;23;20027;-91
2022/06/16 20:06:23;;;;;;;4.15;2.13;;;;;;;;;;6230898;23;20051;-91
2022/06/16 20:08:51;;;;;;;6.07;2.28;;;;;;;;;;6171446;23;20455;-90
2022/06/16 20:11:43;;;;;;;6.20;2.13;;;;;;;;;;6229380;23;20024;-91
2022/06/16 20:14:11;;;;;;;3.30;2.00;;;;;;;;;;6224089;23;20107;-91
2022/06/16 20:16:43;;;;;;;6.25;2.50;;;;;;;;;;6223716;23;20016;-91
2022/06/16 20:19:11;;;;;;;7.45;2.58;;;;;;;;;;6225307;23;20027;-91
2022/06/16 20:21:41;;;;;;;4.03;2.03;;;;;;;;;;6187651;23;20055;-91
2022/06/16 20:24:09;;;;;;;4.20;1.92;;;;;;;;;;6198740;23;20021;-91
2022/06/16 20:26:38;;;;;;;4.10;2.08;;;;;;;;;;6223709;23;20510;-91
2022/06/16 20:29:06;;;;;;;7.18;2.20;;;;;;;;;;6224519;23;20021;-91
2022/06/16 20:31:34;;;;;;;5.55;1.90;;;;;;;;;;6198568;23;20008;-91
2022/06/16 20:34:15;;;;;;;4.28;2.10;;;;;;;;;;6199633;23;20016;-91
2022/06/16 20:36:46;;;;;;;5.93;2.28;;;;;;;;;;6198296;23;20016;-91
2022/06/16 20:39:38;;;;;;;4.28;2.50;;;;;;;;;;6222950;23;20340;-91
2022/06/16 20:42:12;;;;;;;3.63;1.92;;;;;;;;;;6163065;23;20021;-91
2022/06/16 20:44:45;;;;;;;3.35;2.00;;;;;;;;;;6198635;23;20017;-91
2022/06/16 20:47:14;;;;;;;3.40;2.03;;;;;;;;;;6223027;23;20079;-91
2022/06/16 20:49:43;;;;;;;4.28;2.42;;;;;;;;;;6213380;23;20078;-90
2022/06/16 20:52:14;;;;;;;6.10;2.10;;;;;;;;;;6223258;23;20024;-91
2022/06/16 20:55:13;;;;;;;5.32;2.80;;;;;;;;;;6223449;23;20054;-91
2022/06/16 21:03:43;;;;;;;5.63;2.28;;;;;;;;;;6188387;23;20096;-91
2022/06/16 21:06:21;;;;;;;4.28;2.30;;;;;;;;;;6223296;23;20027;-91
2022/06/16 21:14:57;;;;;;;3.90;2.10;;;;;;;;;;6227834;23;20078;-92
2022/06/16 21:17:28;;;;;;;6.68;2.33;;;;;;;;;;6202124;23;20095;-92
2022/06/16 21:19:58;;;;;;;5.57;2.35;;;;;;;;;;6202237;23;20048;-92
2022/06/16 21:22:50;;;;;;;6.05;2.55;;;;;;;;;;6225729;23;20023;-90
2022/06/16 21:25:21;;;;;;;4.53;2.13;;;;;;;;;;6226629;23;20347;-90
2022/06/16 21:27:50;;;;;;;6.25;2.30;;;;;;;;;;6226865;23;20017;-91
2022/06/16 21:30:23;;;;;;;6.05;2.42;;;;;;;;;;6227160;23;20013;-90
2022/06/16 21:32:53;;;;;;;4.78;2.10;;;;;;;;;;6227224;23;20075;-93
2022/06/16 21:35:24;;;;;;;5.72;2.40;;;;;;;;;;6201318;23;20135;-93
2022/06/16 22:29:07;;;;;;;4.68;3.25;;;;;;;;;;6277896;22;20019;-91
2022/06/16 22:34:55;;;;;;;6.40;2.60;;;;;;;;;;6224687;22;20093;-87
2022/06/16 22:37:50;;;;;;;5.07;2.90;;;;;;;;;;6235620;22;20016;-87
2022/06/16 22:40:27;;;;;;;7.03;2.70;;;;;;;;;;6260005;22;20012;-87
2022/06/16 22:43:11;;;;;;;6.93;2.95;;;;;;;;;;6288265;22;20103;-91
2022/06/16 22:45:47;;;;;;;5.28;2.65;;;;;;;;;;6262552;22;20050;-91
2022/06/16 22:48:26;;;;;;;5.20;2.45;;;;;;;;;;6250729;22;20020;-90
2022/06/16 22:50:53;;;;;;;4.20;2.40;;;;;;;;;;6225982;22;20026;-91
2022/06/16 22:53:22;;;;;;;10.40;2.67;;;;;;;;;;6235606;22;20376;-86
2022/06/16 22:59:01;;;;;;;5.80;2.70;;;;;;;;;;6287118;22;20095;-87
2022/06/16 23:01:29;;;;;;;5.78;3.10;;;;;;;;;;6249930;22;20026;-88
2022/06/16 23:04:08;;;;;;;6.40;3.25;;;;;;;;;;6234988;22;20393;-87
2022/06/16 23:06:59;;;;;;;4.55;2.83;;;;;;;;;;6259967;22;20007;-87
2022/06/16 23:09:37;;;;;;;6.03;3.03;;;;;;;;;;6286925;22;20026;-87
2022/06/16 23:12:29;;;;;;;4.90;2.83;;;;;;;;;;6250045;22;20050;-90
2022/06/16 23:15:02;;;;;;;6.78;3.33;;;;;;;;;;6249805;22;20323;-90
2022/06/16 23:17:29;;;;;;;5.13;3.03;;;;;;;;;;6260222;22;20070;-90
2022/06/16 23:19:59;;;;;;;7.25;3.03;;;;;;;;;;6236950;22;20023;-90
2022/06/16 23:22:32;;;;;;;5.53;2.90;;;;;;;;;;6248414;22;20020;-90
2022/06/16 23:25:01;;;;;;;4.65;3.13;;;;;;;;;;6258569;22;20015;-90
2022/06/16 23:27:30;;;;;;;5.88;2.97;;;;;;;;;;6297595;22;20099;-90
2022/06/16 23:30:04;;;;;;;5.53;2.85;;;;;;;;;;6289028;22;20015;-90
2022/06/16 23:32:34;;;;;;;6.82;3.10;;;;;;;;;;6270325;22;20373;-96
2022/06/16 23:35:31;;;;;;;5.45;3.13;;;;;;;;;;6355951;22;20087;-96
2022/06/16 23:38:33;;;;;;;6.20;3.10;;;;;;;;;;6273187;22;20023;-96
2022/06/16 23:41:05;;;;;;;7.03;2.90;;;;;;;;;;6264136;23;20020;-95
2022/06/16 23:43:35;;;;;;;5.88;3.45;;;;;;;;;;6220344;23;20074;-94
2022/06/16 23:46:04;;;;;;;5.88;3.00;;;;;;;;;;6219878;23;20016;-96
2022/06/16 23:48:36;;;;;;;6.43;3.15;;;;;;;;;;6221346;23;20020;-90
2022/06/16 23:51:20;;;;;;;8.30;2.95;;;;;;;;;;6255973;22;20022;-87
2022/06/16 23:54:13;;;;;;;6.95;3.08;;;;;;;;;;6247601;23;20023;-92
2022/06/16 23:56:46;;;;;;;5.85;3.30;;;;;;;;;;6221620;23;20024;-91
2022/06/16 23:59:19;;;;;;;6.53;3.22;;;;;;;;;;6196917;23;20024;-92
